Time;durP1;ratioP1;P1;durP2;ratioP2;P2;SDS_P1;SDS_P2;PMS_P1;PMS_P2;Temp;Humidity;BMP_temperature;BMP_pressure;BME280_temperature;BME280_humidity;BME280_pressure;Samples;Min_cycle;Max_cycle;Signal;HPM_P1;HPM_P2
2022/11/26 00:00:39;;;;;;;7.93;5.22;;;;;;;18.04;49.53;102429.16;5003995;28;20017;-59
2022/11/26 00:03:04;;;;;;;9.55;4.95;;;;;;;18.13;49.55;102435.63;5021752;28;20475;-59
2022/11/26 00:05:30;;;;;;;8.38;4.82;;;;;;;18.11;49.41;102441.13;5021890;28;20026;-59
2022/11/26 00:07:58;;;;;;;7.85;4.47;;;;;;;18.11;49.29;102440.28;5003964;28;20029;-59
2022/11/26 00:10:28;;;;;;;9.82;5.40;;;;;;;18.11;49.52;102453.75;5004315;28;20030;-59
2022/11/26 00:12:54;;;;;;;7.18;4.85;;;;;;;18.10;49.42;102449.34;5004216;28;20018;-59
2022/11/26 00:15:22;;;;;;;7.20;4.35;;;;;;;18.06;49.55;102456.81;5021372;28;20037;-59
2022/11/26 00:17:49;;;;;;;8.02;4.78;;;;;;;18.08;49.17;102460.22;5021724;28;20045;-59
2022/11/26 00:20:15;;;;;;;9.82;5.10;;;;;;;18.09;49.45;102458.38;5021977;28;20060;-59
2022/11/26 00:22:43;;;;;;;6.63;4.32;;;;;;;18.08;49.24;102467.44;5021017;28;20026;-58
2022/11/26 00:25:13;;;;;;;8.18;5.18;;;;;;;18.08;49.58;102462.06;5003714;28;20044;-59
2022/11/26 00:27:39;;;;;;;9.38;5.30;;;;;;;18.07;49.31;102463.03;5003837;28;20026;-59
2022/11/26 00:30:12;;;;;;;5.80;4.25;;;;;;;17.82;49.37;102421.13;5022002;28;20022;-58
2022/11/26 00:32:38;;;;;;;6.38;4.22;;;;;;;18.06;49.20;102467.59;5020876;28;20034;-58
2022/11/26 00:35:03;;;;;;;6.88;3.97;;;;;;;17.98;49.33;102454.75;5021074;28;20102;-59
2022/11/26 00:37:52;;;;;;;5.88;4.13;;;;;;;18.06;49.30;102469.41;5021095;28;20030;-59
2022/11/26 00:40:25;;;;;;;9.48;4.75;;;;;;;18.03;49.13;102475.91;5024489;28;20044;-59
2022/11/26 00:42:51;;;;;;;7.20;5.60;;;;;;;18.03;49.05;102480.44;5007042;28;20048;-59
2022/11/26 00:45:19;;;;;;;7.53;4.35;;;;;;;18.03;49.42;102489.34;5024225;28;20093;-59
2022/11/26 00:47:45;;;;;;;9.35;4.40;;;;;;;18.02;49.04;102479.56;5024504;28;20044;-59
2022/11/26 00:50:15;;;;;;;7.95;4.38;;;;;;;18.02;49.08;102484.09;5024913;28;20029;-58
2022/11/26 00:52:41;;;;;;;6.35;3.83;;;;;;;18.02;49.23;102489.50;5024618;28;20032;-59
2022/11/26 00:55:32;;;;;;;6.40;3.85;;;;;;;17.99;49.30;102486.03;5024613;28;20061;-59
2022/11/26 00:57:58;;;;;;;6.78;4.07;;;;;;;17.87;48.94;102462.81;5006619;28;20138;-59
2022/11/26 01:00:26;;;;;;;6.90;3.90;;;;;;;17.98;49.26;102486.19;5024322;28;20506;-59
2022/11/26 01:02:52;;;;;;;6.07;3.75;;;;;;;17.98;49.31;102488.88;5006350;28;20042;-59
2022/11/26 01:05:19;;;;;;;7.63;4.32;;;;;;;17.91;49.06;102476.88;5006772;28;20044;-59
2022/11/26 01:07:45;;;;;;;7.45;3.95;;;;;;;17.97;49.21;102490.72;5024379;28;20515;-59
2022/11/26 01:10:18;;;;;;;8.38;3.90;;;;;;;17.97;48.87;102489.88;5024414;28;20089;-58
2022/11/26 01:12:44;;;;;;;5.75;3.90;;;;;;;17.88;48.74;102475.31;5024508;28;20049;-58
2022/11/26 01:15:10;;;;;;;5.55;3.45;;;;;;;17.89;48.98;102486.94;5024403;28;20022;-57
2022/11/26 01:17:35;;;;;;;7.75;4.65;;;;;;;17.92;49.08;102484.81;5024274;28;20022;-59
2022/11/26 01:20:00;;;;;;;6.60;3.70;;;;;;;17.92;49.08;102490.19;5023930;28;20025;-59
2022/11/26 01:22:25;;;;;;;7.28;3.50;;;;;;;17.92;48.95;102492.91;5023737;28;20878;-58
2022/11/26 01:24:51;;;;;;;6.60;3.92;;;;;;;17.92;49.07;102498.28;5023677;28;20105;-58
2022/11/26 01:27:20;;;;;;;6.80;3.90;;;;;;;17.92;49.16;102506.34;5024113;28;20081;-58
2022/11/26 01:29:46;;;;;;;6.50;3.72;;;;;;;17.90;48.92;102494.88;5024286;28;20572;-59
2022/11/26 01:32:11;;;;;;;5.57;3.72;;;;;;;17.90;48.82;102500.25;5024093;28;20046;-58
2022/11/26 01:34:37;;;;;;;7.72;4.57;;;;;;;17.91;48.92;102504.66;5023364;28;20022;-59
2022/11/26 01:37:02;;;;;;;5.53;3.40;;;;;;;17.91;49.05;102509.19;5023758;28;20025;-58
2022/11/26 01:39:27;;;;;;;6.53;3.97;;;;;;;17.65;48.92;102469.03;5005468;28;20089;-59
2022/11/26 01:42:02;;;;;;;6.05;3.50;;;;;;;17.89;48.87;102505.75;5020460;28;20030;-59
2022/11/26 01:44:30;;;;;;;4.45;3.20;;;;;;;17.86;49.08;102506.00;5024674;28;20030;-59
2022/11/26 01:46:56;;;;;;;6.45;3.72;;;;;;;17.89;49.16;102516.53;5024529;28;20104;-58
2022/11/26 01:49:32;;;;;;;5.30;3.40;;;;;;;17.77;48.78;102496.84;5006212;28;20101;-58
2022/11/26 01:52:09;;;;;;;5.97;3.63;;;;;;;17.88;48.92;102520.19;5024474;28;20438;-58
2022/11/26 01:54:37;;;;;;;6.60;3.60;;;;;;;17.86;48.99;102514.06;5006346;28;20056;-58
2022/11/26 01:57:21;;;;;;;4.95;3.58;;;;;;;17.86;48.73;102514.06;5024572;28;20482;-58
2022/11/26 01:59:51;;;;;;;4.13;3.30;;;;;;;17.85;48.80;102513.22;5024027;28;20029;-58
2022/11/26 02:02:17;;;;;;;5.18;3.47;;;;;;;17.82;48.77;102508.06;5006969;28;20022;-58
2022/11/26 02:04:51;;;;;;;6.57;3.95;;;;;;;17.84;48.90;102513.31;5006327;28;20029;-59
2022/11/26 02:07:17;;;;;;;5.65;3.20;;;;;;;17.83;48.76;102509.78;4990017;28;20038;-59
2022/11/26 02:09:42;;;;;;;5.10;2.92;;;;;;;17.83;48.79;102517.84;5024108;28;20034;-59
2022/11/26 02:12:08;;;;;;;7.28;3.65;;;;;;;17.83;48.81;102517.84;5024136;28;20057;-59
2022/11/26 02:14:36;;;;;;;5.88;3.65;;;;;;;17.83;48.75;102512.47;5023788;28;20029;-59
2022/11/26 02:17:16;;;;;;;5.38;2.80;;;;;;;17.81;48.87;102506.38;5024029;28;20018;-58
2022/11/26 02:19:51;;;;;;;5.60;3.20;;;;;;;17.81;48.83;102509.06;5023827;28;20033;-58
2022/11/26 02:22:44;;;;;;;5.90;3.20;;;;;;;17.81;49.01;102505.53;5005911;28;20032;-58
2022/11/26 02:25:34;;;;;;;4.63;3.15;;;;;;;17.80;49.06;102512.75;5023447;28;20046;-59
2022/11/26 02:28:44;;;;;;;5.35;3.38;;;;;;;17.80;48.88;102518.13;5023757;28;20030;-58
2022/11/26 02:31:35;;;;;;;4.38;2.83;;;;;;;17.79;48.88;102513.69;4962741;29;20050;-59
2022/11/26 02:34:09;;;;;;;4.65;3.10;;;;;;;17.78;48.92;102517.38;4946381;29;20042;-59
2022/11/26 02:36:41;;;;;;;4.28;2.95;;;;;;;17.76;48.66;102516.66;4962904;29;20123;-59
2022/11/26 02:39:14;;;;;;;5.65;3.20;;;;;;;17.67;48.91;102503.88;4946435;29;20042;-58
2022/11/26 02:41:41;;;;;;;4.00;2.80;;;;;;;17.76;49.11;102521.19;4962650;28;20035;-59
2022/11/26 02:44:07;;;;;;;4.28;3.13;;;;;;;17.74;48.85;102523.97;4962540;29;20459;-59
2022/11/26 02:46:32;;;;;;;5.28;2.97;;;;;;;17.76;48.91;102529.25;4946355;29;20063;-59
2022/11/26 02:48:57;;;;;;;4.28;2.95;;;;;;;17.76;48.73;102534.63;4960022;28;20027;-58
2022/11/26 02:51:24;;;;;;;4.28;3.08;;;;;;;17.52;49.01;102489.81;4981965;28;20031;-57
2022/11/26 02:53:51;;;;;;;5.70;3.10;;;;;;;17.76;48.97;102531.94;4951810;29;20038;-58
2022/11/26 02:56:21;;;;;;;4.03;2.47;;;;;;;17.74;48.68;102534.72;4962110;29;20027;-58
2022/11/26 02:58:49;;;;;;;4.60;2.97;;;;;;;17.74;48.90;102524.81;4945408;29;20051;-59
2022/11/26 03:01:27;;;;;;;3.42;2.53;;;;;;;17.74;48.74;102532.91;4942342;29;20039;-58
2022/11/26 03:03:55;;;;;;;4.32;2.50;;;;;;;17.74;48.72;102546.34;4942361;29;20043;-58
2022/11/26 03:06:21;;;;;;;3.40;2.60;;;;;;;17.73;48.66;102543.75;4946731;28;20099;-58
2022/11/26 03:08:46;;;;;;;3.65;2.72;;;;;;;17.66;48.75;102534.44;5003213;28;20033;-60
2022/11/26 03:11:12;;;;;;;4.85;2.88;;;;;;;17.71;48.63;102543.00;4986069;28;20030;-57
2022/11/26 03:13:37;;;;;;;3.85;2.90;;;;;;;17.48;48.75;102509.88;5003571;28;20022;-57
2022/11/26 03:16:03;;;;;;;4.88;3.00;;;;;;;17.70;48.55;102552.91;5003264;28;20018;-59
2022/11/26 03:18:28;;;;;;;3.60;2.70;;;;;;;17.71;48.59;102551.06;5022651;28;20025;-58
2022/11/26 03:20:53;;;;;;;4.20;2.80;;;;;;;17.43;48.81;102502.16;5023050;28;20030;-59
2022/11/26 03:23:19;;;;;;;4.78;3.00;;;;;;;17.70;48.69;102555.59;5022359;28;20034;-58
2022/11/26 03:25:44;;;;;;;3.97;2.80;;;;;;;17.70;48.57;102560.13;5021828;28;20315;-58
2022/11/26 03:28:09;;;;;;;3.80;2.50;;;;;;;17.69;48.84;102561.97;5022064;28;20052;-59
2022/11/26 03:30:35;;;;;;;3.88;2.22;;;;;;;17.69;48.82;102558.44;5022107;28;20116;-58
2022/11/26 03:33:00;;;;;;;3.50;2.70;;;;;;;17.65;48.72;102563.19;5021869;28;20033;-58
2022/11/26 03:35:25;;;;;;;4.95;2.70;;;;;;;17.67;48.66;102569.31;5022207;28;20077;-57
2022/11/26 03:37:50;;;;;;;4.95;2.90;;;;;;;17.66;48.77;102575.66;5022270;28;20033;-58
2022/11/26 03:40:16;;;;;;;4.25;2.90;;;;;;;17.66;48.70;102582.88;5021226;28;20097;-58
2022/11/26 03:42:42;;;;;;;5.38;2.97;;;;;;;17.65;48.88;102576.63;5022956;28;20057;-57
2022/11/26 03:45:08;;;;;;;4.07;2.20;;;;;;;17.57;48.70;102571.00;5022761;28;20085;-58
2022/11/26 03:47:33;;;;;;;3.67;2.67;;;;;;;17.64;48.79;102590.22;5022532;28;20025;-59
2022/11/26 03:49:58;;;;;;;3.03;2.45;;;;;;;16.87;48.67;102466.25;5004467;28;20025;-58
2022/11/26 03:52:24;;;;;;;4.45;2.70;;;;;;;17.63;48.74;102597.44;5022206;28;20030;-58
2022/11/26 03:54:49;;;;;;;3.97;2.70;;;;;;;17.62;48.73;102589.47;5022293;28;20030;-59
2022/11/26 03:57:15;;;;;;;3.92;2.50;;;;;;;17.63;48.55;102593.88;5022563;28;20455;-59
2022/11/26 03:59:40;;;;;;;4.53;2.40;;;;;;;17.63;48.79;102588.50;5022394;28;20036;-62
2022/11/26 04:02:07;;;;;;;3.65;2.35;;;;;;;17.62;48.51;102592.16;5022702;28;20145;-58
2022/11/26 04:04:32;;;;;;;4.35;2.50;;;;;;;17.61;48.68;102583.22;5021944;28;20094;-58
2022/11/26 04:06:57;;;;;;;4.38;2.33;;;;;;;17.47;48.57;102570.00;5005212;28;20018;-58
2022/11/26 04:09:23;;;;;;;3.78;2.92;;;;;;;17.61;48.73;102596.66;5022068;28;20034;-59
2022/11/26 04:11:48;;;;;;;3.50;2.70;;;;;;;17.61;48.61;102601.19;5022764;28;20018;-58
2022/11/26 04:14:13;;;;;;;3.65;2.47;;;;;;;17.61;48.71;102604.75;5025390;28;20572;-59
2022/11/26 04:16:38;;;;;;;4.10;2.10;;;;;;;17.60;48.31;102603.03;5026105;28;20029;-60
2022/11/26 04:19:04;;;;;;;3.80;2.25;;;;;;;17.60;48.77;102607.56;5025965;28;20038;-59
2022/11/26 04:21:29;;;;;;;2.78;2.08;;;;;;;17.57;48.52;102600.56;5026530;28;20062;-59
2022/11/26 04:23:54;;;;;;;4.30;2.47;;;;;;;17.60;48.55;102608.41;5025163;28;21029;-58
2022/11/26 04:26:20;;;;;;;4.57;2.90;;;;;;;17.59;48.69;102609.41;5026056;28;20038;-59
2022/11/26 04:28:45;;;;;;;4.32;2.42;;;;;;;17.48;48.72;102599.44;5026138;28;20038;-59
2022/11/26 04:31:10;;;;;;;3.28;2.55;;;;;;;17.60;48.62;102611.09;5026169;28;20442;-59
2022/11/26 04:33:35;;;;;;;3.10;2.08;;;;;;;17.36;48.67;102572.66;5025465;28;20018;-59
2022/11/26 04:36:01;;;;;;;4.63;2.88;;;;;;;17.60;48.64;102608.41;5025771;28;20084;-60
2022/11/26 04:38:26;;;;;;;3.35;2.30;;;;;;;17.61;48.66;102609.28;5025864;28;20033;-60
2022/11/26 04:40:52;;;;;;;3.95;2.20;;;;;;;17.60;48.44;102612.94;5025672;28;20037;-59
2022/11/26 04:43:17;;;;;;;3.75;2.20;;;;;;;17.60;48.41;102607.56;5025578;28;20058;-59
2022/11/26 04:45:42;;;;;;;2.88;2.33;;;;;;;17.60;48.69;102616.47;5025465;28;20038;-59
2022/11/26 04:48:08;;;;;;;3.60;2.55;;;;;;;17.62;48.48;102619.91;5025351;28;20152;-59
2022/11/26 04:50:33;;;;;;;5.03;2.40;;;;;;;17.63;48.36;102618.09;5025449;28;20117;-59
2022/11/26 04:52:58;;;;;;;4.00;2.13;;;;;;;17.63;48.37;102624.31;5025522;28;20085;-59
2022/11/26 04:55:24;;;;;;;4.07;2.55;;;;;;;17.64;48.32;102622.50;5025587;28;20096;-59
2022/11/26 04:57:49;;;;;;;3.75;2.20;;;;;;;17.64;48.20;102620.66;5025534;28;20052;-59
2022/11/26 05:00:18;;;;;;;4.25;2.55;;;;;;;17.58;48.23;102612.19;5025191;28;20026;-59
2022/11/26 05:02:43;;;;;;;2.58;1.88;;;;;;;17.64;48.41;102634.09;5025599;28;20044;-59
2022/11/26 05:05:08;;;;;;;3.67;2.30;;;;;;;17.65;48.19;102637.66;5024784;28;20026;-59
2022/11/26 05:07:34;;;;;;;3.22;2.03;;;;;;;17.65;48.25;102640.34;5024079;28;20033;-59
2022/11/26 05:09:59;;;;;;;3.63;1.95;;;;;;;17.65;48.47;102632.25;5025406;28;20565;-59
2022/11/26 05:12:24;;;;;;;4.75;2.28;;;;;;;17.61;48.46;102620.88;5026022;28;20064;-59
2022/11/26 05:14:49;;;;;;;3.22;2.38;;;;;;;17.65;48.47;102633.13;5025270;28;20030;-58
2022/11/26 05:17:15;;;;;;;3.20;2.10;;;;;;;17.65;48.52;102629.56;5025240;28;20045;-59
2022/11/26 05:19:40;;;;;;;3.08;2.30;;;;;;;17.65;48.53;102634.94;5023963;28;20030;-58
2022/11/26 05:22:05;;;;;;;3.42;2.10;;;;;;;17.66;48.41;102636.66;5024585;28;20040;-59
2022/11/26 05:24:30;;;;;;;3.45;2.10;;;;;;;17.63;48.48;102632.41;5023246;28;20044;-59
2022/11/26 05:26:56;;;;;;;3.65;2.42;;;;;;;17.67;48.14;102643.75;5025032;28;20049;-59
2022/11/26 05:29:21;;;;;;;4.45;2.20;;;;;;;17.63;48.42;102635.09;5024186;28;20026;-59
2022/11/26 05:31:46;;;;;;;2.88;2.10;;;;;;;17.68;48.20;102649.03;5024729;28;20036;-59
2022/11/26 05:34:11;;;;;;;3.05;2.00;;;;;;;17.69;48.20;102655.25;5024156;28;20057;-59
2022/11/26 05:36:37;;;;;;;2.72;1.90;;;;;;;17.69;48.15;102649.88;5024450;28;20054;-59
2022/11/26 05:39:02;;;;;;;3.45;2.40;;;;;;;17.68;48.50;102656.25;5023909;28;20034;-57
2022/11/26 05:41:27;;;;;;;3.50;2.25;;;;;;;17.71;48.23;102662.25;5024342;28;20037;-59
2022/11/26 05:43:53;;;;;;;3.45;2.30;;;;;;;17.74;48.26;102661.19;5006593;28;20032;-58
2022/11/26 05:46:18;;;;;;;4.32;2.28;;;;;;;17.74;48.50;102664.72;5024450;28;20076;-59
2022/11/26 05:48:43;;;;;;;4.28;2.28;;;;;;;17.74;48.54;102659.34;5023352;28;20041;-59
2022/11/26 05:51:09;;;;;;;2.65;1.90;;;;;;;17.77;48.29;102660.09;5024311;28;20029;-57
2022/11/26 05:53:34;;;;;;;2.72;2.10;;;;;;;17.77;48.28;102662.78;5023691;28;20021;-59
2022/11/26 05:55:59;;;;;;;3.45;2.10;;;;;;;17.77;48.44;102660.09;5024158;28;20058;-59
2022/11/26 05:58:25;;;;;;;4.00;2.15;;;;;;;17.77;48.51;102657.41;5023780;28;20033;-59
2022/11/26 06:00:50;;;;;;;3.35;1.60;;;;;;;17.78;48.56;102665.34;5023812;28;20184;-59
2022/11/26 06:03:16;;;;;;;3.15;2.20;;;;;;;17.78;48.60;102670.72;5023644;28;20077;-59
2022/11/26 06:05:41;;;;;;;3.63;2.30;;;;;;;17.79;48.17;102663.50;5023515;28;20550;-58
2022/11/26 06:08:06;;;;;;;2.58;1.77;;;;;;;17.79;48.66;102667.06;5021343;28;20394;-59
2022/11/26 06:10:32;;;;;;;2.47;1.88;;;;;;;17.78;48.38;102662.66;5006407;28;20032;-58
2022/11/26 06:12:57;;;;;;;2.63;2.03;;;;;;;17.80;48.73;102665.22;5024309;28;20033;-59
2022/11/26 06:15:22;;;;;;;5.38;2.15;;;;;;;17.80;48.63;102665.22;5023671;28;20021;-59
2022/11/26 06:17:47;;;;;;;2.80;1.85;;;;;;;17.81;48.68;102669.63;5023947;28;20030;-58
2022/11/26 06:20:13;;;;;;;3.00;2.20;;;;;;;17.81;48.88;102675.03;5023165;28;20539;-59
2022/11/26 06:22:39;;;;;;;3.60;2.22;;;;;;;17.79;48.58;102671.56;5024216;28;20154;-59
2022/11/26 06:25:06;;;;;;;4.18;2.00;;;;;;;17.81;48.67;102673.19;5023219;28;20045;-59
2022/11/26 06:27:32;;;;;;;2.53;2.17;;;;;;;17.78;48.69;102665.34;5023102;28;20092;-58
2022/11/26 06:29:57;;;;;;;4.05;2.20;;;;;;;17.82;48.61;102674.91;5021016;28;20018;-59
2022/11/26 06:32:23;;;;;;;3.40;1.90;;;;;;;17.84;48.53;102675.66;5022934;28;20033;-59
2022/11/26 06:34:48;;;;;;;3.10;2.22;;;;;;;17.84;48.80;102678.34;5022844;28;20103;-59
2022/11/26 06:37:13;;;;;;;2.78;2.08;;;;;;;17.77;48.63;102666.31;5004506;28;20025;-59
2022/11/26 06:39:38;;;;;;;2.88;1.90;;;;;;;17.84;49.12;102683.72;5023081;28;20026;-59
2022/11/26 06:42:04;;;;;;;4.30;2.40;;;;;;;17.85;48.70;102687.25;5023777;28;20032;-59
2022/11/26 06:44:29;;;;;;;3.85;2.33;;;;;;;17.86;48.72;102697.91;5023245;28;20101;-59
2022/11/26 06:46:54;;;;;;;2.78;2.38;;;;;;;17.87;48.61;102690.69;5022551;28;20465;-59
2022/11/26 06:49:19;;;;;;;2.67;1.90;;;;;;;17.87;49.17;102694.22;5016881;28;20022;-59
2022/11/26 06:51:45;;;;;;;3.30;2.25;;;;;;;17.84;48.99;102696.28;5023350;28;20033;-59
2022/11/26 06:54:10;;;;;;;2.72;2.00;;;;;;;17.88;48.66;102706.72;5023287;28;20022;-58
2022/11/26 06:56:35;;;;;;;3.95;2.15;;;;;;;17.88;48.59;102709.41;5023693;28;20098;-59
2022/11/26 06:59:01;;;;;;;3.83;2.88;;;;;;;17.88;48.86;102720.19;5023651;28;20025;-59
2022/11/26 07:01:27;;;;;;;3.72;2.55;;;;;;;17.88;48.96;102716.59;5023345;28;20029;-60
2022/11/26 07:03:53;;;;;;;4.50;2.20;;;;;;;17.87;48.88;102720.28;5022644;28;20053;-59
2022/11/26 07:06:29;;;;;;;3.83;2.20;;;;;;;17.86;48.85;102723.94;5000074;28;20030;-59
2022/11/26 07:08:55;;;;;;;2.92;2.40;;;;;;;17.85;49.00;102728.47;5023222;28;20033;-58
2022/11/26 07:11:21;;;;;;;4.13;2.08;;;;;;;17.85;49.09;102733.88;5022975;28;20034;-58
2022/11/26 07:13:47;;;;;;;3.22;2.05;;;;;;;17.85;48.79;102728.47;5022835;28;20026;-59
2022/11/26 07:16:12;;;;;;;5.03;2.63;;;;;;;17.83;49.17;102721.50;5022047;28;20037;-59
2022/11/26 07:18:38;;;;;;;4.43;2.13;;;;;;;17.88;48.83;102733.63;5022318;28;20025;-58
2022/11/26 07:21:08;;;;;;;4.28;2.05;;;;;;;17.89;49.11;102735.34;5023069;28;20026;-59
2022/11/26 07:23:33;;;;;;;3.30;2.00;;;;;;;17.87;48.88;102729.22;5022510;28;20018;-58
2022/11/26 07:26:02;;;;;;;3.03;1.92;;;;;;;17.86;48.74;102726.66;5004895;28;20054;-58
2022/11/26 07:28:28;;;;;;;2.90;2.10;;;;;;;17.94;49.00;102730.47;5022489;28;20018;-58
2022/11/26 07:30:54;;;;;;;4.53;2.35;;;;;;;17.92;48.82;102734.22;5022871;28;20033;-59
2022/11/26 07:33:19;;;;;;;4.07;2.67;;;;;;;17.94;48.93;102738.53;5022163;28;20034;-59
2022/11/26 07:35:44;;;;;;;6.57;2.33;;;;;;;17.96;48.65;102741.09;5022668;28;20032;-59
2022/11/26 07:38:10;;;;;;;4.35;2.42;;;;;;;17.87;48.65;102733.72;5022610;28;20030;-58
2022/11/26 07:40:35;;;;;;;4.95;2.38;;;;;;;17.95;48.83;102744.78;5022654;28;20049;-58
2022/11/26 07:43:00;;;;;;;3.30;2.45;;;;;;;17.96;48.83;102741.94;5022607;28;20047;-58
2022/11/26 07:45:26;;;;;;;3.05;2.15;;;;;;;17.94;48.99;102733.16;5021427;28;20088;-58
2022/11/26 07:47:51;;;;;;;3.45;2.20;;;;;;;18.01;48.58;102744.31;5021935;28;20109;-59
2022/11/26 07:50:16;;;;;;;6.35;2.38;;;;;;;18.01;48.52;102741.63;5022315;28;20060;-59
2022/11/26 07:52:41;;;;;;;3.33;2.42;;;;;;;18.02;48.42;102740.66;5022466;28;20483;-59
2022/11/26 07:55:07;;;;;;;3.63;2.40;;;;;;;18.02;48.33;102742.47;5004622;28;20029;-57
2022/11/26 07:57:32;;;;;;;3.13;2.47;;;;;;;18.02;48.44;102747.88;5022565;28;20017;-58
2022/11/26 07:59:57;;;;;;;3.60;2.22;;;;;;;18.01;48.52;102749.69;5022080;28;20734;-58
2022/11/26 08:02:23;;;;;;;3.78;2.22;;;;;;;18.02;48.27;102750.56;5022283;28;20029;-57
2022/11/26 08:04:48;;;;;;;3.67;2.33;;;;;;;18.03;48.28;102750.44;5021793;28;20033;-60
2022/11/26 08:07:13;;;;;;;4.47;2.38;;;;;;;18.04;48.21;102746.75;5022429;28;20081;-58
2022/11/26 08:09:38;;;;;;;2.90;2.40;;;;;;;18.06;48.34;102758.28;5022408;28;20096;-59
2022/11/26 08:12:04;;;;;;;3.60;2.17;;;;;;;18.05;48.04;102750.28;5022837;28;20083;-58
2022/11/26 08:14:29;;;;;;;4.45;2.20;;;;;;;18.06;48.34;102746.66;5022027;28;20021;-59
2022/11/26 08:16:56;;;;;;;5.15;3.03;;;;;;;18.07;48.20;102756.44;5005217;28;20617;-58
2022/11/26 08:19:21;;;;;;;3.63;2.35;;;;;;;18.06;48.10;102760.97;5021533;28;20018;-58
2022/11/26 08:21:46;;;;;;;4.57;2.40;;;;;;;18.08;48.30;102771.59;5022308;28;20040;-58
2022/11/26 08:24:16;;;;;;;4.35;2.55;;;;;;;17.97;48.32;102750.91;5021402;28;20058;-58
2022/11/26 08:26:42;;;;;;;4.43;2.45;;;;;;;18.10;48.31;102777.75;5022150;28;20068;-59
2022/11/26 08:29:07;;;;;;;3.10;2.35;;;;;;;18.10;48.31;102767.81;5022182;28;20161;-58
2022/11/26 08:31:33;;;;;;;4.40;2.53;;;;;;;18.12;48.22;102767.69;5022047;28;20511;-58
2022/11/26 08:33:59;;;;;;;3.05;2.00;;;;;;;18.13;47.85;102766.72;5021287;28;20025;-58
2022/11/26 08:36:28;;;;;;;3.00;2.30;;;;;;;18.09;48.08;102763.41;5022095;28;20060;-57
2022/11/26 08:38:53;;;;;;;2.40;2.03;;;;;;;18.12;47.90;102765.00;5021686;28;20026;-58
2022/11/26 08:41:19;;;;;;;3.88;2.50;;;;;;;18.15;47.96;102772.84;5021759;28;20032;-58
2022/11/26 08:43:44;;;;;;;4.15;2.35;;;;;;;18.15;47.65;102779.09;5022196;28;20030;-57
2022/11/26 08:46:10;;;;;;;3.65;2.10;;;;;;;18.09;47.83;102771.47;5021481;28;20026;-57
2022/11/26 08:48:35;;;;;;;3.72;2.55;;;;;;;18.18;47.58;102783.38;5021104;28;20022;-57
2022/11/26 08:51:08;;;;;;;4.43;2.72;;;;;;;18.18;47.77;102783.38;5021869;28;20037;-57
2022/11/26 08:53:34;;;;;;;4.60;2.38;;;;;;;18.12;47.67;102779.31;5003832;28;20018;-58
2022/11/26 08:56:03;;;;;;;4.63;2.50;;;;;;;18.17;47.64;102776.28;5021786;28;20092;-57
2022/11/26 08:58:29;;;;;;;4.85;2.40;;;;;;;18.19;47.73;102777.88;5021808;28;20049;-57
2022/11/26 09:00:54;;;;;;;5.45;2.95;;;;;;;18.20;47.62;102778.75;5025311;28;20034;-58
2022/11/26 09:03:19;;;;;;;3.70;2.40;;;;;;;18.20;47.42;102773.34;5024823;28;20018;-58
2022/11/26 09:05:44;;;;;;;3.92;2.92;;;;;;;18.20;47.47;102774.22;5025453;28;20117;-58
2022/11/26 09:08:10;;;;;;;4.43;2.92;;;;;;;18.22;47.32;102779.47;5024954;28;20037;-59
2022/11/26 09:10:35;;;;;;;4.85;2.78;;;;;;;18.22;47.38;102776.78;5025270;28;20093;-58
2022/11/26 09:13:01;;;;;;;3.58;2.70;;;;;;;18.24;47.16;102775.69;5025231;28;20038;-58
2022/11/26 09:15:26;;;;;;;3.47;2.53;;;;;;;18.23;47.14;102773.13;5024529;28;20093;-58
2022/11/26 09:17:51;;;;;;;6.15;3.33;;;;;;;18.25;47.45;102776.53;5024684;28;20110;-58
2022/11/26 09:20:16;;;;;;;4.43;2.92;;;;;;;18.15;47.22;102764.78;5024389;28;20033;-58
2022/11/26 09:22:42;;;;;;;3.47;2.60;;;;;;;18.27;47.09;102784.53;5024388;28;20112;-57
2022/11/26 09:25:08;;;;;;;4.00;2.97;;;;;;;18.02;47.23;102740.66;5024217;28;20049;-58
2022/11/26 09:27:33;;;;;;;6.00;3.20;;;;;;;18.27;47.21;102788.06;5024775;28;20049;-57
2022/11/26 09:29:58;;;;;;;3.67;2.80;;;;;;;18.28;47.09;102791.63;5024327;28;20029;-58
2022/11/26 09:32:24;;;;;;;3.63;2.70;;;;;;;18.27;46.98;102788.06;5024478;28;20041;-58
2022/11/26 09:34:51;;;;;;;4.88;3.15;;;;;;;18.28;46.83;102794.31;5024467;28;20482;-59
2022/11/26 09:37:16;;;;;;;3.95;2.83;;;;;;;18.24;47.03;102791.84;5024364;28;20030;-59
2022/11/26 09:39:41;;;;;;;3.80;2.72;;;;;;;18.28;46.87;102795.16;5023854;28;20101;-59
2022/11/26 09:42:13;;;;;;;4.75;3.30;;;;;;;18.27;46.92;102798.84;5024133;28;20036;-59
2022/11/26 09:45:09;;;;;;;4.82;3.03;;;;;;;18.27;46.99;102795.28;5006812;28;20045;-58
2022/11/26 09:47:38;;;;;;;4.07;3.00;;;;;;;18.28;46.90;102807.78;5023931;28;20029;-58
2022/11/26 09:50:09;;;;;;;3.50;2.70;;;;;;;18.28;46.85;102800.53;5006571;28;20029;-59
2022/11/26 09:52:51;;;;;;;5.03;3.25;;;;;;;18.28;46.69;102805.06;5024021;28;20026;-59
2022/11/26 09:55:20;;;;;;;4.32;2.75;;;;;;;18.26;46.74;102793.53;5024169;28;20018;-59
2022/11/26 09:58:13;;;;;;;3.58;2.72;;;;;;;18.18;46.97;102802.22;5006785;28;20029;-59
2022/11/26 10:00:44;;;;;;;3.38;2.92;;;;;;;18.27;47.18;102817.69;5005830;28;20042;-59
2022/11/26 10:03:18;;;;;;;3.75;2.75;;;;;;;18.27;46.99;102806.06;5006298;28;20033;-58
2022/11/26 10:05:51;;;;;;;5.10;3.30;;;;;;;18.28;47.12;102813.16;5023843;28;20033;-58
2022/11/26 10:08:45;;;;;;;3.78;2.70;;;;;;;18.27;47.12;102809.59;5023585;28;20030;-59
2022/11/26 10:11:31;;;;;;;4.93;3.03;;;;;;;18.25;46.99;102816.94;4982367;28;20043;-59
2022/11/26 10:14:05;;;;;;;6.25;3.50;;;;;;;18.26;47.11;102815.94;4982023;28;20031;-58
2022/11/26 10:16:45;;;;;;;5.60;3.70;;;;;;;18.26;46.98;102812.41;4965671;28;20035;-59
2022/11/26 10:19:32;;;;;;;4.20;3.33;;;;;;;18.25;47.33;102808.84;4962118;29;20069;-58
2022/11/26 10:21:59;;;;;;;5.00;3.05;;;;;;;18.27;46.76;102806.91;4946801;29;20230;-59
2022/11/26 10:24:32;;;;;;;4.82;3.33;;;;;;;18.27;47.03;102806.91;4946242;29;20110;-58
2022/11/26 10:27:04;;;;;;;3.67;2.85;;;;;;;18.28;47.27;102818.53;4946576;29;20035;-59
2022/11/26 10:29:38;;;;;;;4.00;2.95;;;;;;;18.24;47.12;102807.16;4955495;28;20158;-59
2022/11/26 10:32:13;;;;;;;4.95;3.15;;;;;;;18.28;47.01;102808.63;4981964;28;20037;-59
2022/11/26 10:34:50;;;;;;;4.55;3.10;;;;;;;18.29;47.21;102809.47;4981826;28;20050;-59
2022/11/26 10:37:16;;;;;;;4.03;3.40;;;;;;;18.28;47.18;102805.94;4981446;28;20038;-59
2022/11/26 10:39:42;;;;;;;4.55;2.75;;;;;;;18.29;47.00;102801.41;4981395;28;20039;-59
2022/11/26 10:42:25;;;;;;;5.57;3.58;;;;;;;18.29;47.23;102798.72;4973209;28;20156;-59
2022/11/26 10:44:51;;;;;;;5.28;3.20;;;;;;;18.31;46.80;102796.75;4962108;29;20027;-58
2022/11/26 10:47:27;;;;;;;5.03;3.40;;;;;;;18.32;47.28;102791.25;4977503;28;20076;-56
2022/11/26 10:50:16;;;;;;;6.15;3.22;;;;;;;18.20;47.10;102765.28;5019559;28;20030;-58
2022/11/26 10:52:42;;;;;;;3.30;2.50;;;;;;;18.35;47.24;102787.44;5016816;28;20053;-58
2022/11/26 10:55:18;;;;;;;4.45;2.95;;;;;;;18.36;47.24;102779.28;4995554;28;20021;-58
2022/11/26 10:57:49;;;;;;;4.88;3.38;;;;;;;18.36;47.12;102784.66;5014812;28;20037;-59
2022/11/26 11:00:32;;;;;;;5.63;3.20;;;;;;;18.40;47.17;102787.97;5007965;28;20045;-56
2022/11/26 11:02:59;;;;;;;4.55;2.78;;;;;;;18.41;47.49;102793.22;5013810;28;20029;-57
2022/11/26 11:05:24;;;;;;;4.35;3.30;;;;;;;18.35;47.19;102782.94;4993486;28;20019;-59
2022/11/26 11:07:52;;;;;;;4.18;3.28;;;;;;;18.30;47.17;102774.34;5001924;28;20026;-58
2022/11/26 11:10:23;;;;;;;4.80;3.22;;;;;;;18.47;47.13;102791.88;4993952;28;20092;-58
2022/11/26 11:13:10;;;;;;;3.60;2.75;;;;;;;18.48;47.13;102791.78;5012923;28;20040;-59
2022/11/26 11:15:39;;;;;;;4.75;3.08;;;;;;;18.51;47.41;102789.81;5018044;28;20030;-59
2022/11/26 11:18:23;;;;;;;5.60;3.33;;;;;;;18.52;47.17;102786.13;5003756;28;20033;-59
2022/11/26 11:20:56;;;;;;;3.83;3.05;;;;;;;18.53;46.93;102791.41;5006061;28;20034;-59
2022/11/26 11:23:24;;;;;;;7.07;3.50;;;;;;;18.50;47.15;102783.56;5007758;28;20069;-58
2022/11/26 11:25:58;;;;;;;5.05;3.28;;;;;;;18.45;47.21;102775.00;5000869;28;20050;-58
2022/11/26 11:28:29;;;;;;;3.72;2.92;;;;;;;18.56;47.18;102782.22;5020811;28;20021;-59